Time;durP1;ratioP1;P1;durP2;ratioP2;P2;SDS_P1;SDS_P2;PMS_P1;PMS_P2;Temp;Humidity;BMP_temperature;BMP_pressure;BME280_temperature;BME280_humidity;BME280_pressure;Samples;Min_cycle;Max_cycle;Signal;HPM_P1;HPM_P2
2021/01/12 00:00:27;;;;;;;10.17;7.83;;;4.50;99.90;;;;;;4995860;28;20520;-76
2021/01/12 00:02:54;;;;;;;7.60;6.75;;;4.40;99.90;;;;;;4999736;28;20221;-76
2021/01/12 00:05:20;;;;;;;9.98;7.40;;;4.40;99.90;;;;;;5005006;28;20277;-76
2021/01/12 00:07:47;;;;;;;8.18;6.95;;;4.40;99.90;;;;;;4997046;28;20826;-76
2021/01/12 00:10:14;;;;;;;8.13;7.05;;;4.40;99.90;;;;;;5008894;28;20213;-77
2021/01/12 00:12:39;;;;;;;10.10;6.85;;;4.40;99.90;;;;;;4994917;28;20650;-77
2021/01/12 00:15:07;;;;;;;6.43;5.67;;;4.50;99.90;;;;;;5004719;28;20209;-77
2021/01/12 00:17:33;;;;;;;9.35;6.60;;;4.50;99.90;;;;;;4993711;28;20228;-78
2021/01/12 00:19:59;;;;;;;7.00;6.30;;;4.50;99.90;;;;;;5013284;28;20194;-78
2021/01/12 00:22:24;;;;;;;9.43;6.90;;;4.50;99.90;;;;;;5013163;28;20445;-77
2021/01/12 00:24:51;;;;;;;6.80;6.10;;;4.50;99.90;;;;;;5001799;28;20499;-77
2021/01/12 00:27:20;;;;;;;9.52;7.55;;;4.50;99.90;;;;;;5013026;28;20464;-77
2021/01/12 00:29:46;;;;;;;6.10;5.38;;;4.50;99.90;;;;;;4996910;28;20601;-77
2021/01/12 00:32:20;;;;;;;9.10;6.23;;;4.50;99.90;;;;;;4988812;28;20211;-77
2021/01/12 00:34:46;;;;;;;7.13;6.05;;;4.50;99.90;;;;;;5000363;28;20811;-77
2021/01/12 00:37:11;;;;;;;7.63;6.20;;;4.60;99.90;;;;;;4993417;28;20210;-78
2021/01/12 00:39:37;;;;;;;8.33;6.57;;;4.60;99.90;;;;;;5007963;28;20205;-77
2021/01/12 00:42:03;;;;;;;9.35;6.97;;;4.60;99.90;;;;;;5015405;28;20502;-76
2021/01/12 00:44:29;;;;;;;7.27;6.33;;;4.60;99.90;;;;;;5006373;28;20197;-76
2021/01/12 00:46:55;;;;;;;7.77;6.57;;;4.60;99.90;;;;;;5013696;28;20460;-77
2021/01/12 00:49:22;;;;;;;8.20;5.87;;;4.60;99.90;;;;;;5003454;28;20213;-76
2021/01/12 00:51:49;;;;;;;7.55;6.68;;;4.60;99.90;;;;;;5009784;28;20445;-76
2021/01/12 00:54:17;;;;;;;8.13;6.70;;;4.60;99.90;;;;;;5006164;28;20202;-76
2021/01/12 00:56:43;;;;;;;9.00;7.28;;;4.60;99.90;;;;;;4995504;28;20253;-77
2021/01/12 00:59:09;;;;;;;8.80;6.67;;;4.60;99.90;;;;;;5004018;28;20726;-77
2021/01/12 01:01:37;;;;;;;11.50;7.63;;;4.60;99.90;;;;;;4992427;28;20845;-77
2021/01/12 01:04:03;;;;;;;8.45;6.63;;;4.60;99.90;;;;;;4993963;28;20485;-77
2021/01/12 01:06:29;;;;;;;8.93;7.25;;;4.60;99.90;;;;;;5011375;28;20229;-78
2021/01/12 01:08:55;;;;;;;10.53;7.10;;;4.60;99.90;;;;;;5001032;28;20206;-77
2021/01/12 01:11:20;;;;;;;8.77;6.73;;;4.60;99.90;;;;;;5011302;28;20927;-77
2021/01/12 01:13:47;;;;;;;7.93;7.10;;;4.60;99.90;;;;;;5012533;28;20661;-77
2021/01/12 01:16:13;;;;;;;7.80;6.30;;;4.60;99.90;;;;;;4995257;28;20174;-77
2021/01/12 01:18:39;;;;;;;11.20;7.00;;;4.60;99.90;;;;;;4993224;28;20190;-77
2021/01/12 01:21:05;;;;;;;5.80;5.23;;;4.60;99.90;;;;;;5008026;28;20472;-76
2021/01/12 01:23:31;;;;;;;7.25;5.75;;;4.60;99.90;;;;;;5013209;28;20788;-76
2021/01/12 01:25:56;;;;;;;6.43;5.43;;;4.60;99.90;;;;;;4998906;28;20213;-76
2021/01/12 01:28:23;;;;;;;6.73;5.40;;;4.60;99.90;;;;;;4993163;28;20476;-77
2021/01/12 01:30:52;;;;;;;6.80;5.25;;;4.60;99.90;;;;;;4995530;28;20202;-76
2021/01/12 01:33:17;;;;;;;5.05;3.90;;;4.60;99.90;;;;;;4993148;28;20218;-76
2021/01/12 01:35:43;;;;;;;4.70;3.90;;;4.60;99.90;;;;;;5005652;28;20691;-77
2021/01/12 01:38:09;;;;;;;4.03;3.28;;;4.60;99.90;;;;;;5011934;28;21125;-76
2021/01/12 01:40:36;;;;;;;4.40;4.00;;;4.60;99.90;;;;;;5002494;28;20292;-76
2021/01/12 01:43:02;;;;;;;4.90;3.40;;;4.70;99.90;;;;;;4992930;28;20285;-76
2021/01/12 01:45:28;;;;;;;4.30;3.70;;;4.70;99.90;;;;;;5002518;28;20186;-76
2021/01/12 01:47:53;;;;;;;5.30;3.17;;;4.70;99.90;;;;;;5012470;28;20224;-76
2021/01/12 01:50:21;;;;;;;3.37;2.80;;;4.70;99.90;;;;;;5004388;28;20222;-76
2021/01/12 01:52:55;;;;;;;3.78;2.88;;;4.70;99.90;;;;;;4992139;28;20865;-77
2021/01/12 01:55:22;;;;;;;3.50;3.20;;;4.70;99.90;;;;;;5000273;28;20652;-77
2021/01/12 01:57:48;;;;;;;2.92;2.72;;;4.70;99.90;;;;;;5008900;28;20217;-76
2021/01/12 02:00:18;;;;;;;2.70;2.43;;;4.70;99.90;;;;;;4994483;28;20668;-76
2021/01/12 02:02:54;;;;;;;2.60;2.40;;;4.70;99.90;;;;;;4992517;28;20465;-77
2021/01/12 02:05:23;;;;;;;2.42;2.13;;;4.70;99.90;;;;;;5000908;28;20198;-77
2021/01/12 02:07:52;;;;;;;3.30;2.60;;;4.70;99.90;;;;;;5009670;28;20225;-76
2021/01/12 02:10:19;;;;;;;2.30;2.10;;;4.80;99.90;;;;;;4992336;28;20252;-77
2021/01/12 02:12:58;;;;;;;1.80;1.70;;;4.80;99.90;;;;;;4989948;28;20221;-77
2021/01/12 02:15:26;;;;;;;1.80;1.63;;;4.90;99.90;;;;;;4995003;28;20233;-77
2021/01/12 02:17:52;;;;;;;2.50;2.30;;;4.90;99.90;;;;;;4986881;28;20210;-76
2021/01/12 02:20:21;;;;;;;2.67;2.25;;;4.90;99.90;;;;;;4992642;28;20218;-77
2021/01/12 02:23:08;;;;;;;2.25;2.05;;;4.90;99.90;;;;;;4992437;28;20252;-77
2021/01/12 02:25:36;;;;;;;2.67;1.63;;;5.00;99.90;;;;;;5009872;28;20213;-78
2021/01/12 02:28:08;;;;;;;3.33;2.53;;;5.00;99.90;;;;;;5011363;28;20576;-78
2021/01/12 02:30:37;;;;;;;1.65;1.55;;;5.00;99.90;;;;;;5002258;28;20249;-79
2021/01/12 02:33:04;;;;;;;2.10;1.90;;;5.00;99.90;;;;;;4991534;28;20210;-78
2021/01/12 02:35:32;;;;;;;2.47;1.80;;;5.10;99.90;;;;;;5000949;28;20201;-78
2021/01/12 02:37:58;;;;;;;2.35;2.15;;;5.10;99.90;;;;;;5011030;28;20213;-78
2021/01/12 02:40:24;;;;;;;1.73;1.63;;;5.10;99.90;;;;;;5010114;28;20247;-78
2021/01/12 02:42:51;;;;;;;1.58;1.48;;;5.00;99.90;;;;;;5000971;28;20264;-79
2021/01/12 02:45:17;;;;;;;2.13;1.77;;;5.10;99.90;;;;;;4992894;28;20191;-79
2021/01/12 02:47:43;;;;;;;1.60;1.50;;;5.10;99.90;;;;;;4992378;28;20226;-80
2021/01/12 02:50:11;;;;;;;1.83;1.50;;;5.10;99.90;;;;;;4993385;28;20320;-80
2021/01/12 02:52:39;;;;;;;1.67;1.50;;;5.10;99.90;;;;;;4993037;28;20461;-80
2021/01/12 02:55:06;;;;;;;1.58;1.48;;;5.10;99.90;;;;;;4993440;28;20197;-79
2021/01/12 02:57:32;;;;;;;3.15;1.95;;;5.10;99.90;;;;;;4993362;28;20242;-80
2021/01/12 02:59:57;;;;;;;1.43;1.30;;;5.10;99.90;;;;;;4993236;28;20226;-80
2021/01/12 03:02:23;;;;;;;3.97;1.67;;;5.10;99.90;;;;;;4993118;28;20678;-80
2021/01/12 03:04:49;;;;;;;1.70;1.60;;;5.10;99.90;;;;;;4993242;28;20317;-79
2021/01/12 03:07:14;;;;;;;1.60;1.43;;;5.10;99.90;;;;;;4996347;28;20236;-79
2021/01/12 03:09:40;;;;;;;2.50;1.77;;;5.00;99.90;;;;;;5012815;28;20279;-79
2021/01/12 03:12:06;;;;;;;3.63;1.63;;;5.10;99.90;;;;;;4994201;28;20210;-80
2021/01/12 03:14:31;;;;;;;1.73;1.63;;;5.10;99.90;;;;;;5012762;28;20189;-80
2021/01/12 03:17:13;;;;;;;2.00;1.90;;;5.10;99.90;;;;;;5012502;28;20232;-80
2021/01/12 03:19:39;;;;;;;3.95;1.77;;;5.10;99.90;;;;;;5012797;28;20193;-80
2021/01/12 03:22:05;;;;;;;2.03;1.65;;;5.10;99.90;;;;;;5012407;28;20226;-80
2021/01/12 03:24:31;;;;;;;1.67;1.57;;;5.10;99.90;;;;;;5014610;28;20699;-80
2021/01/12 03:26:57;;;;;;;1.90;1.48;;;5.10;99.90;;;;;;5016314;28;20221;-80
2021/01/12 03:29:22;;;;;;;2.43;1.97;;;5.10;99.90;;;;;;5016720;28;20588;-80
2021/01/12 03:31:48;;;;;;;2.80;1.50;;;5.10;99.90;;;;;;5016407;28;20304;-80
2021/01/12 03:34:14;;;;;;;1.77;1.67;;;5.20;99.90;;;;;;5016754;28;20236;-80
2021/01/12 03:36:40;;;;;;;1.87;1.40;;;5.20;99.90;;;;;;5015745;28;20264;-79
2021/01/12 03:39:06;;;;;;;1.53;1.43;;;5.20;99.90;;;;;;4994305;28;20529;-79
2021/01/12 03:41:32;;;;;;;2.33;1.30;;;5.20;99.90;;;;;;4995800;28;20684;-80
2021/01/12 03:43:59;;;;;;;2.20;1.70;;;5.20;99.90;;;;;;4997068;28;20201;-80
2021/01/12 03:46:25;;;;;;;1.77;1.20;;;5.20;99.90;;;;;;4996222;28;20203;-80
2021/01/12 03:48:51;;;;;;;1.53;1.13;;;5.10;99.90;;;;;;4996944;28;20162;-81
2021/01/12 03:51:17;;;;;;;2.97;1.40;;;5.20;99.90;;;;;;4996174;28;20433;-80
2021/01/12 03:53:43;;;;;;;1.48;1.35;;;5.20;99.90;;;;;;4996813;28;20175;-80
2021/01/12 03:56:09;;;;;;;2.03;1.50;;;5.20;99.90;;;;;;4995071;28;20206;-80
2021/01/12 03:58:36;;;;;;;1.47;1.30;;;5.10;99.90;;;;;;4996998;28;20162;-80
2021/01/12 04:01:02;;;;;;;2.55;1.92;;;5.20;99.90;;;;;;4996450;28;20672;-79
2021/01/12 04:03:28;;;;;;;1.70;1.60;;;5.20;99.90;;;;;;5006210;28;20677;-78
2021/01/12 04:05:54;;;;;;;2.20;1.20;;;5.20;99.90;;;;;;5001696;28;20225;-79
2021/01/12 04:08:20;;;;;;;1.42;1.27;;;5.20;99.90;;;;;;5014577;28;20511;-79
2021/01/12 04:10:46;;;;;;;1.70;1.30;;;5.20;99.90;;;;;;5013989;28;20229;-78
2021/01/12 04:13:11;;;;;;;1.47;1.20;;;5.20;99.90;;;;;;4995778;28;20222;-79
2021/01/12 04:15:37;;;;;;;1.40;1.30;;;5.20;99.90;;;;;;5002056;28;20198;-78
2021/01/12 04:18:03;;;;;;;2.20;1.40;;;5.10;99.90;;;;;;4993880;28;20211;-79
2021/01/12 04:20:29;;;;;;;1.30;1.13;;;5.20;99.90;;;;;;5004862;28;20217;-78
2021/01/12 04:22:54;;;;;;;1.13;1.00;;;5.20;99.90;;;;;;4995718;28;20217;-79
2021/01/12 04:25:20;;;;;;;1.77;1.30;;;5.10;99.90;;;;;;5004580;28;20199;-79
2021/01/12 04:27:46;;;;;;;1.27;1.00;;;5.20;99.90;;;;;;4998524;28;20631;-79
2021/01/12 04:30:12;;;;;;;1.20;0.90;;;5.20;99.90;;;;;;5014996;28;20405;-79
2021/01/12 04:32:39;;;;;;;1.15;1.05;;;5.20;99.90;;;;;;4997710;28;20443;-81
2021/01/12 04:35:05;;;;;;;1.55;1.02;;;5.20;99.90;;;;;;5015099;28;20170;-80
2021/01/12 04:37:31;;;;;;;1.60;1.25;;;5.20;99.90;;;;;;5012008;28;20580;-79
2021/01/12 04:39:56;;;;;;;1.40;1.10;;;5.30;99.90;;;;;;4994394;28;20169;-79
2021/01/12 04:42:22;;;;;;;1.47;0.97;;;5.30;99.90;;;;;;4994804;28;20237;-81
2021/01/12 04:44:47;;;;;;;1.20;1.00;;;5.30;99.90;;;;;;4994615;28;20273;-81
2021/01/12 04:47:13;;;;;;;1.83;0.80;;;5.30;99.90;;;;;;4995342;28;20215;-80
2021/01/12 04:49:39;;;;;;;1.40;0.90;;;5.20;99.90;;;;;;4995770;28;20182;-81
2021/01/12 04:52:05;;;;;;;1.10;0.87;;;5.20;99.90;;;;;;4995376;28;20261;-80
2021/01/12 04:54:32;;;;;;;0.80;0.80;;;5.20;99.90;;;;;;4995856;28;20265;-81
2021/01/12 04:56:58;;;;;;;1.90;0.90;;;5.30;99.90;;;;;;4994725;28;20641;-79
2021/01/12 04:59:28;;;;;;;1.30;1.00;;;5.20;99.90;;;;;;5008789;28;20197;-79
2021/01/12 05:01:54;;;;;;;1.20;1.10;;;5.30;99.90;;;;;;5014496;28;20452;-79
2021/01/12 05:04:20;;;;;;;1.42;1.33;;;5.30;99.90;;;;;;5001772;28;20270;-79
2021/01/12 05:06:46;;;;;;;1.20;0.93;;;5.30;99.90;;;;;;4996491;28;20751;-80
2021/01/12 05:09:19;;;;;;;2.10;1.25;;;5.30;99.90;;;;;;5001556;28;20441;-79
2021/01/12 05:11:46;;;;;;;1.00;0.70;;;5.30;99.90;;;;;;5004310;28;20271;-81
2021/01/12 05:22:05;;;;;;;0.98;0.88;;;5.40;99.90;;;;;;5661077;23;20508;-79
2021/01/12 05:24:42;;;;;;;0.88;0.75;;;5.40;99.90;;;;;;4995267;28;20197;-79
2021/01/12 05:27:11;;;;;;;0.82;0.75;;;5.30;99.90;;;;;;5012794;28;20700;-79
2021/01/12 05:29:41;;;;;;;1.10;0.70;;;5.40;99.90;;;;;;5011390;28;20249;-79
2021/01/12 05:32:09;;;;;;;1.13;0.93;;;5.30;99.90;;;;;;4992892;28;20222;-79
2021/01/12 05:34:35;;;;;;;0.90;0.68;;;5.30;99.90;;;;;;5003424;28;20198;-79
2021/01/12 05:37:07;;;;;;;0.90;0.70;;;5.30;99.90;;;;;;5012337;28;20819;-79
2021/01/12 05:39:38;;;;;;;1.23;0.80;;;5.30;99.90;;;;;;5010077;28;20165;-79
2021/01/12 05:42:11;;;;;;;0.70;0.52;;;5.30;99.90;;;;;;5012299;28;20229;-81
2021/01/12 05:44:39;;;;;;;0.85;0.65;;;5.30;99.90;;;;;;5014331;28;20228;-81
2021/01/12 05:47:05;;;;;;;1.00;0.70;;;5.30;99.90;;;;;;5013477;28;20217;-81
2021/01/12 05:49:47;;;;;;;0.95;0.70;;;5.30;99.90;;;;;;5014356;28;20193;-81
2021/01/12 05:52:13;;;;;;;1.10;0.60;;;5.30;99.90;;;;;;5011488;28;20256;-81
2021/01/12 05:54:53;;;;;;;0.90;0.60;;;5.40;99.90;;;;;;5014422;28;20182;-81
2021/01/12 05:57:23;;;;;;;0.80;0.73;;;5.40;99.90;;;;;;5013597;28;20304;-81
2021/01/12 05:59:54;;;;;;;0.95;0.80;;;5.40;99.90;;;;;;5014259;28;20153;-81
2021/01/12 06:02:21;;;;;;;1.00;0.80;;;5.40;99.90;;;;;;4995068;28;20217;-79
2021/01/12 06:04:51;;;;;;;1.45;0.80;;;5.40;99.90;;;;;;4978956;28;20194;-79
2021/01/12 06:07:17;;;;;;;0.80;0.60;;;5.40;99.90;;;;;;4990505;28;20265;-79
2021/01/12 06:09:45;;;;;;;0.85;0.65;;;5.40;99.90;;;;;;5006481;28;20307;-80
2021/01/12 06:12:12;;;;;;;0.77;0.55;;;5.40;99.90;;;;;;4976370;28;20262;-79
2021/01/12 06:14:38;;;;;;;1.25;0.80;;;5.40;99.90;;;;;;4993231;28;20574;-80
2021/01/12 06:17:10;;;;;;;0.95;0.70;;;5.40;99.90;;;;;;4982418;28;20225;-79
2021/01/12 06:19:43;;;;;;;1.60;0.75;;;5.50;99.90;;;;;;4992971;28;20163;-79
2021/01/12 06:22:16;;;;;;;1.40;0.82;;;5.50;99.90;;;;;;4998487;28;20222;-79
2021/01/12 06:24:52;;;;;;;0.80;0.68;;;5.50;99.90;;;;;;4994099;28;20209;-81
2021/01/12 06:27:20;;;;;;;0.70;0.60;;;5.60;99.90;;;;;;4990249;28;20221;-79
2021/01/12 06:29:47;;;;;;;1.05;0.80;;;5.50;99.90;;;;;;4992277;28;20235;-79
2021/01/12 06:32:17;;;;;;;0.98;0.88;;;5.50;99.90;;;;;;4991757;28;20237;-81
2021/01/12 06:34:43;;;;;;;1.50;0.85;;;5.50;99.90;;;;;;4994066;28;20675;-81
2021/01/12 06:37:11;;;;;;;1.20;0.90;;;5.50;99.90;;;;;;4993188;28;20222;-81
2021/01/12 06:39:56;;;;;;;3.65;0.90;;;5.50;99.90;;;;;;4993851;28;20488;-81
2021/01/12 06:42:27;;;;;;;0.70;0.60;;;5.50;99.90;;;;;;4993072;28;20230;-79
2021/01/12 06:44:55;;;;;;;1.27;0.73;;;5.50;99.90;;;;;;4992505;28;20198;-81
2021/01/12 06:47:31;;;;;;;1.00;0.70;;;5.50;99.90;;;;;;4975277;28;20244;-81
2021/01/12 06:50:10;;;;;;;1.67;0.80;;;5.50;99.90;;;;;;4992353;28;20258;-79
2021/01/12 06:52:48;;;;;;;0.93;0.75;;;5.50;99.90;;;;;;5008641;28;20268;-79
2021/01/12 06:55:19;;;;;;;1.25;0.80;;;5.50;99.90;;;;;;5012535;28;20251;-79
2021/01/12 06:57:46;;;;;;;1.10;0.63;;;5.50;99.90;;;;;;5011696;28;20214;-81
2021/01/12 07:00:13;;;;;;;1.25;0.60;;;5.50;99.90;;;;;;4982680;28;20193;-81
2021/01/12 07:06:02;;;;;;;1.15;1.05;;;5.50;99.90;;;;;;4998223;28;20150;-80
2021/01/12 07:08:29;;;;;;;2.25;0.80;;;5.50;99.90;;;;;;4997155;28;20222;-81
2021/01/12 07:11:00;;;;;;;1.05;0.88;;;5.50;99.90;;;;;;4995822;28;20170;-79
2021/01/12 07:13:41;;;;;;;0.80;0.80;;;5.50;99.90;;;;;;4995879;28;20262;-79
2021/01/12 07:16:14;;;;;;;1.20;1.00;;;5.50;99.90;;;;;;4991765;28;20174;-81
2021/01/12 07:18:56;;;;;;;1.52;0.90;;;5.50;99.90;;;;;;5010787;28;20202;-80
2021/01/12 07:21:28;;;;;;;1.55;1.10;;;5.50;99.90;;;;;;4979788;28;20178;-80
2021/01/12 07:24:01;;;;;;;0.75;0.68;;;5.60;99.90;;;;;;5002502;28;20205;-81
2021/01/12 07:26:30;;;;;;;1.23;0.75;;;5.60;99.90;;;;;;5016492;28;20200;-80
2021/01/12 07:29:03;;;;;;;1.23;0.90;;;5.60;99.90;;;;;;4999429;28;20221;-81
2021/01/12 07:31:29;;;;;;;1.50;0.82;;;5.50;99.90;;;;;;4996771;28;20291;-82
2021/01/12 07:33:55;;;;;;;1.07;0.70;;;5.50;99.90;;;;;;4998582;28;20222;-81
2021/01/12 07:36:22;;;;;;;1.77;1.00;;;5.50;99.90;;;;;;4995859;28;20175;-80
2021/01/12 07:38:51;;;;;;;0.98;0.60;;;5.60;99.90;;;;;;4997509;28;20309;-80
2021/01/12 07:41:17;;;;;;;1.27;1.15;;;5.60;99.90;;;;;;4999362;28;20560;-81
2021/01/12 07:44:07;;;;;;;1.30;1.20;;;5.60;99.90;;;;;;5014279;23;20637;-81
2021/01/12 07:46:33;;;;;;;1.50;1.10;;;5.60;99.90;;;;;;4989520;28;20245;-80
2021/01/12 07:48:59;;;;;;;1.75;1.10;;;5.60;99.90;;;;;;5012442;28;20657;-80
2021/01/12 07:51:28;;;;;;;1.40;0.80;;;5.70;99.90;;;;;;4995927;28;20181;-80
2021/01/12 07:53:54;;;;;;;3.05;1.10;;;5.70;99.90;;;;;;5011242;28;20441;-80
2021/01/12 07:56:20;;;;;;;1.07;0.90;;;5.70;99.90;;;;;;4996375;28;20541;-81
2021/01/12 07:58:45;;;;;;;1.77;0.90;;;5.60;99.90;;;;;;4996273;28;20406;-80
2021/01/12 08:01:13;;;;;;;0.80;0.77;;;5.60;99.90;;;;;;4996547;28;20409;-79
2021/01/12 08:03:41;;;;;;;0.60;0.60;;;5.70;99.90;;;;;;4996739;28;20233;-81
2021/01/12 08:06:07;;;;;;;1.02;0.80;;;5.70;99.90;;;;;;4996715;28;20254;-80
2021/01/12 08:08:32;;;;;;;0.60;0.60;;;5.70;99.90;;;;;;4994415;28;20305;-80
2021/01/12 08:11:00;;;;;;;1.10;0.90;;;5.70;99.90;;;;;;4994422;28;20171;-79
2021/01/12 08:13:25;;;;;;;1.50;1.30;;;5.70;99.90;;;;;;4994873;28;20234;-80
2021/01/12 08:15:51;;;;;;;1.20;0.90;;;5.70;99.90;;;;;;4994607;28;20206;-80
2021/01/12 08:18:21;;;;;;;3.30;0.90;;;5.70;99.90;;;;;;4994683;28;20214;-82
2021/01/12 08:20:53;;;;;;;0.65;0.55;;;5.70;99.90;;;;;;4996772;28;20242;-82
2021/01/12 08:23:19;;;;;;;1.25;0.80;;;5.80;99.90;;;;;;4995402;28;20277;-79
2021/01/12 08:25:46;;;;;;;1.23;0.75;;;5.80;99.90;;;;;;4999699;28;20594;-80
2021/01/12 08:28:11;;;;;;;0.80;0.60;;;5.80;99.90;;;;;;4993356;28;20246;-80
2021/01/12 08:30:40;;;;;;;0.97;0.63;;;5.80;99.90;;;;;;4996182;28;20221;-82
2021/01/12 08:33:15;;;;;;;1.60;0.93;;;5.80;99.90;;;;;;4995787;28;20947;-82
2021/01/12 08:36:08;;;;;;;1.30;0.63;;;5.80;99.90;;;;;;4994697;28;20222;-81
2021/01/12 08:38:34;;;;;;;0.82;0.70;;;5.80;99.90;;;;;;4978316;28;20573;-81
2021/01/12 08:41:05;;;;;;;1.35;0.90;;;5.80;99.90;;;;;;4995064;28;20269;-81
2021/01/12 08:54:13;;;;;;;0.90;0.70;;;5.80;99.90;;;;;;5578538;23;20231;-81
2021/01/12 08:56:47;;;;;;;1.00;0.70;;;5.80;99.90;;;;;;4946751;28;20232;-83
2021/01/12 08:59:34;;;;;;;0.85;0.80;;;5.80;99.90;;;;;;4956525;29;20196;-83
2021/01/12 09:02:05;;;;;;;1.50;0.80;;;5.90;99.90;;;;;;4955936;29;20243;-83
2021/01/12 09:04:31;;;;;;;1.38;0.90;;;5.90;99.90;;;;;;4957661;28;20219;-81
2021/01/12 09:07:05;;;;;;;1.20;0.97;;;5.90;99.90;;;;;;4974183;28;20645;-81
2021/01/12 09:09:32;;;;;;;2.80;1.02;;;5.90;99.90;;;;;;4976018;28;20198;-83
2021/01/12 09:12:00;;;;;;;0.98;0.80;;;5.90;99.90;;;;;;4975909;28;20585;-83
2021/01/12 09:14:32;;;;;;;1.30;0.98;;;6.00;99.90;;;;;;4958347;28;20666;-81
2021/01/12 09:17:02;;;;;;;2.20;0.80;;;5.90;99.90;;;;;;4975602;28;20215;-82
2021/01/12 09:19:40;;;;;;;1.08;0.98;;;5.90;99.90;;;;;;4976708;28;20210;-83
2021/01/12 09:22:17;;;;;;;1.17;0.90;;;6.00;99.90;;;;;;4973591;28;20219;-81
2021/01/12 09:24:54;;;;;;;1.27;1.00;;;6.00;99.90;;;;;;4976920;28;20191;-81
2021/01/12 09:30:45;;;;;;;1.35;1.25;;;6.00;99.90;;;;;;4979596;28;20158;-83
2021/01/12 09:33:23;;;;;;;1.77;1.10;;;6.00;99.90;;;;;;4980544;28;20210;-83
2021/01/12 09:36:05;;;;;;;1.15;1.02;;;6.00;99.90;;;;;;4975499;28;20195;-81
2021/01/12 09:38:39;;;;;;;2.33;1.50;;;6.00;99.90;;;;;;4978539;28;20231;-81
2021/01/12 09:41:06;;;;;;;1.77;1.50;;;6.00;99.90;;;;;;4976000;28;20199;-81
2021/01/12 09:43:44;;;;;;;2.05;1.85;;;6.00;99.90;;;;;;4968197;28;20226;-82
2021/01/12 09:49:34;;;;;;;2.50;2.10;;;6.00;99.90;;;;;;4957804;29;20168;-83
2021/01/12 09:52:00;;;;;;;4.00;2.15;;;5.90;99.90;;;;;;4938516;28;20207;-82
2021/01/12 09:54:25;;;;;;;1.70;1.53;;;5.90;99.90;;;;;;4938518;28;20270;-80
2021/01/12 09:56:51;;;;;;;2.03;1.80;;;6.00;99.90;;;;;;4971152;28;20234;-81
2021/01/12 09:59:17;;;;;;;3.07;2.03;;;6.00;99.90;;;;;;4954763;28;20187;-80
2021/01/12 10:01:42;;;;;;;2.13;1.90;;;6.10;99.90;;;;;;4951496;28;20220;-80
2021/01/12 10:04:09;;;;;;;2.00;1.80;;;6.20;99.90;;;;;;4936306;28;20200;-80
2021/01/12 10:06:34;;;;;;;3.05;2.17;;;6.20;99.90;;;;;;4948764;28;20773;-80
2021/01/12 10:09:00;;;;;;;2.40;2.10;;;6.10;99.90;;;;;;4955237;28;20274;-80
2021/01/12 10:11:28;;;;;;;2.40;2.20;;;6.20;99.90;;;;;;4964648;28;20729;-82
2021/01/12 10:13:56;;;;;;;2.90;2.33;;;6.20;99.90;;;;;;4974173;28;20191;-81
2021/01/12 10:16:23;;;;;;;3.00;2.25;;;6.20;99.90;;;;;;4960689;28;20540;-80
2021/01/12 10:18:49;;;;;;;3.70;2.30;;;6.20;99.90;;;;;;4967255;28;20193;-81
2021/01/12 10:21:17;;;;;;;2.90;2.30;;;6.20;99.90;;;;;;4972470;28;20277;-81
2021/01/12 10:23:43;;;;;;;2.42;2.22;;;6.30;99.90;;;;;;4970964;28;20434;-81
2021/01/12 10:26:14;;;;;;;2.72;2.00;;;6.20;99.90;;;;;;4936015;29;20212;-82
2021/01/12 10:28:39;;;;;;;3.15;2.58;;;6.30;99.90;;;;;;4918791;29;20228;-82
2021/01/12 10:31:05;;;;;;;3.67;2.40;;;6.30;99.90;;;;;;4935983;29;20682;-82
2021/01/12 10:33:31;;;;;;;2.50;2.30;;;6.40;99.90;;;;;;4933209;29;20275;-81
2021/01/12 10:35:56;;;;;;;7.53;2.40;;;6.40;99.90;;;;;;4946161;28;20434;-80
2021/01/12 10:38:22;;;;;;;2.57;2.17;;;6.40;99.90;;;;;;4969330;28;20221;-79
2021/01/12 10:40:48;;;;;;;3.70;2.07;;;6.40;99.90;;;;;;4949337;29;20196;-79
2021/01/12 10:43:14;;;;;;;2.80;2.60;;;6.40;99.90;;;;;;4950344;28;20304;-79
2021/01/12 10:45:39;;;;;;;2.60;2.35;;;6.40;99.90;;;;;;4955185;28;20187;-79
2021/01/12 10:48:08;;;;;;;4.37;2.73;;;6.40;99.90;;;;;;4963833;28;20769;-79
2021/01/12 10:50:34;;;;;;;3.90;2.95;;;6.40;99.90;;;;;;4954181;28;20198;-81
2021/01/12 10:53:00;;;;;;;3.43;3.10;;;6.40;99.90;;;;;;4962569;28;20212;-81
2021/01/12 10:55:25;;;;;;;5.50;3.50;;;6.40;99.90;;;;;;4954071;29;20683;-80
2021/01/12 10:57:55;;;;;;;5.20;3.67;;;6.50;99.90;;;;;;4936201;29;20653;-81
2021/01/12 11:00:24;;;;;;;5.38;3.58;;;6.50;99.90;;;;;;4944158;28;20257;-80
2021/01/12 11:02:50;;;;;;;3.72;3.42;;;6.50;99.90;;;;;;4955306;28;20671;-81
2021/01/12 11:05:16;;;;;;;5.67;4.10;;;6.50;99.90;;;;;;4969358;28;20279;-80
2021/01/12 11:07:45;;;;;;;3.80;3.20;;;6.50;99.90;;;;;;4951547;28;21001;-80
2021/01/12 11:10:11;;;;;;;5.63;3.50;;;6.50;99.90;;;;;;4953624;28;20607;-80
2021/01/12 11:12:39;;;;;;;4.78;3.30;;;6.50;99.90;;;;;;4952653;28;20570;-80
2021/01/12 11:15:07;;;;;;;5.03;3.72;;;6.60;99.90;;;;;;4959871;28;20211;-78
2021/01/12 11:17:34;;;;;;;6.97;3.95;;;6.60;99.90;;;;;;4954989;28;20211;-80
2021/01/12 11:20:03;;;;;;;6.35;4.85;;;6.60;99.90;;;;;;4958180;28;20238;-79
2021/01/12 11:22:29;;;;;;;7.90;5.65;;;6.50;99.90;;;;;;4962111;28;20207;-78
2021/01/12 11:25:01;;;;;;;7.10;4.55;;;6.50;99.90;;;;;;4959073;28;20195;-79
2021/01/12 11:27:27;;;;;;;6.07;4.10;;;6.60;99.90;;;;;;4959625;28;20227;-79
2021/01/12 11:29:54;;;;;;;5.90;4.32;;;6.60;99.90;;;;;;4965937;28;20195;-78
2021/01/12 11:32:23;;;;;;;5.18;4.15;;;6.60;99.90;;;;;;4963153;28;20575;-80
2021/01/12 11:34:49;;;;;;;6.20;4.50;;;6.60;99.90;;;;;;4955377;28;20200;-80
2021/01/12 11:37:15;;;;;;;5.80;4.35;;;6.60;99.90;;;;;;4940670;28;20226;-80
2021/01/12 11:39:41;;;;;;;7.22;4.63;;;6.60;99.90;;;;;;4965907;28;20547;-80
2021/01/12 11:42:12;;;;;;;5.05;4.28;;;6.60;99.90;;;;;;4958194;28;20725;-79
2021/01/12 11:44:38;;;;;;;4.60;4.20;;;6.60;99.90;;;;;;4964910;28;20196;-78
2021/01/12 11:47:06;;;;;;;8.85;4.68;;;6.60;99.90;;;;;;4955513;29;20699;-80
2021/01/12 11:49:33;;;;;;;5.38;4.88;;;6.60;99.90;;;;;;4958984;28;20219;-79
2021/01/12 11:52:02;;;;;;;7.60;5.93;;;6.60;99.90;;;;;;4959506;28;20247;-81
2021/01/12 11:54:29;;;;;;;8.50;5.47;;;6.60;99.90;;;;;;4963841;28;20203;-78
2021/01/12 11:56:59;;;;;;;8.52;6.20;;;6.60;99.90;;;;;;4955874;28;20220;-78
2021/01/12 11:59:30;;;;;;;7.95;4.80;;;6.60;99.90;;;;;;4954078;29;20204;-78
2021/01/12 12:01:56;;;;;;;5.13;4.00;;;6.60;99.90;;;;;;4968968;28;20226;-79
2021/01/12 12:04:25;;;;;;;5.18;4.60;;;6.50;99.90;;;;;;4976328;28;20191;-80
2021/01/12 12:07:00;;;;;;;10.48;5.50;;;6.50;99.90;;;;;;4974837;28;20698;-81
2021/01/12 12:09:26;;;;;;;6.78;4.93;;;6.50;99.90;;;;;;4964150;28;20238;-81
2021/01/12 12:11:52;;;;;;;7.68;5.13;;;6.50;99.90;;;;;;4949076;28;20243;-80
2021/01/12 12:14:18;;;;;;;5.30;4.60;;;6.50;99.90;;;;;;4963911;28;20239;-79
2021/01/12 12:16:46;;;;;;;9.15;4.80;;;6.50;99.90;;;;;;4960751;28;20211;-80
2021/01/12 12:19:14;;;;;;;8.50;4.30;;;6.50;99.90;;;;;;4968083;28;20287;-80
2021/01/12 12:21:51;;;;;;;5.38;4.20;;;6.50;99.90;;;;;;4961388;28;20233;-79
2021/01/12 12:24:18;;;;;;;6.20;4.10;;;6.50;99.90;;;;;;4960861;28;20199;-80
2021/01/12 12:26:45;;;;;;;6.05;3.38;;;6.50;99.90;;;;;;4942855;28;20629;-81
2021/01/12 12:29:12;;;;;;;3.67;3.28;;;6.40;99.90;;;;;;4975423;28;20168;-79
2021/01/12 12:31:37;;;;;;;3.55;2.47;;;6.30;99.90;;;;;;4958731;28;20207;-79
2021/01/12 12:34:04;;;;;;;2.40;2.20;;;6.30;99.90;;;;;;4955994;29;20188;-80
2021/01/12 12:36:30;;;;;;;3.35;2.47;;;6.30;99.90;;;;;;4958929;28;20248;-79
2021/01/12 12:38:56;;;;;;;2.42;2.00;;;6.20;99.90;;;;;;4955684;28;20179;-80
2021/01/12 12:41:22;;;;;;;2.77;2.20;;;6.20;99.90;;;;;;4954728;28;20690;-78
2021/01/12 12:43:48;;;;;;;2.67;2.17;;;6.20;99.90;;;;;;4969039;28;20428;-80
2021/01/12 12:46:16;;;;;;;2.42;2.10;;;6.10;99.90;;;;;;4955266;29;20319;-80
2021/01/12 12:48:43;;;;;;;1.70;1.60;;;6.10;99.90;;;;;;4955235;29;20271;-80
2021/01/12 12:51:11;;;;;;;2.50;2.08;;;6.10;99.90;;;;;;4955377;28;20319;-78
2021/01/12 12:53:38;;;;;;;1.45;1.35;;;6.10;99.90;;;;;;4946061;28;20216;-80
2021/01/12 12:56:04;;;;;;;2.90;1.50;;;6.10;99.90;;;;;;4955939;28;20191;-80
2021/01/12 12:58:31;;;;;;;1.42;1.20;;;6.10;99.90;;;;;;4971886;28;20215;-80
2021/01/12 13:00:58;;;;;;;1.60;1.20;;;6.10;99.90;;;;;;4956837;28;20211;-78
2021/01/12 13:03:24;;;;;;;1.20;0.85;;;6.10;99.90;;;;;;4949537;28;20215;-80
2021/01/12 13:05:50;;;;;;;1.08;0.88;;;6.00;99.90;;;;;;4974630;28;20191;-79
2021/01/12 13:08:17;;;;;;;1.83;1.52;;;6.00;99.90;;;;;;4956647;28;20223;-80
2021/01/12 13:10:42;;;;;;;1.70;1.00;;;6.00;99.90;;;;;;4964623;28;20611;-79
2021/01/12 13:13:09;;;;;;;1.57;1.10;;;6.00;99.90;;;;;;4954304;28;20208;-78
2021/01/12 13:15:35;;;;;;;2.35;1.40;;;6.00;99.90;;;;;;4955028;28;20258;-80
2021/01/12 13:18:11;;;;;;;1.98;1.77;;;6.00;99.90;;;;;;4953288;28;20223;-78
2021/01/12 13:20:37;;;;;;;5.30;1.88;;;6.00;99.90;;;;;;4960101;28;20245;-80
2021/01/12 13:23:03;;;;;;;4.22;2.67;;;6.00;99.90;;;;;;4962502;28;20262;-79
2021/01/12 13:25:29;;;;;;;3.75;3.20;;;6.00;99.90;;;;;;4968453;28;20231;-79
2021/01/12 13:27:55;;;;;;;3.50;2.40;;;6.00;99.90;;;;;;4971822;28;20266;-80
2021/01/12 13:30:21;;;;;;;2.93;2.40;;;6.00;99.90;;;;;;4967648;28;20220;-78